METAR Data
IDs: Format: Raw Decoded Include TAF

Data at: 1304 UTC 11 Dec 2018

KMKN 111255Z AUTO 20007KT 10SM CLR 03/00 A3031 RMK AO2 T00250000
KMKN 111235Z AUTO 21008KT 10SM CLR 03/00 A3031 RMK AO2 T00290000
KMKN 111215Z AUTO 21008KT 10SM CLR 05/01 A3031 RMK AO2 T00450005
KMKN 111155Z AUTO 22010KT 10SM CLR 05/01 A3031 RMK AO2 T00520005 10065 20029
KMKN 111135Z AUTO 22011KT 10SM CLR 06/01 A3031 RMK AO2 T00560005
KMKN 111115Z AUTO 21010KT 10SM CLR 06/00 A3031 RMK AO2 T00560003
KMKN 111055Z AUTO 22011KT 10SM CLR 06/00 A3031 RMK AO2 T00610004
KMKN 111035Z AUTO 22011KT 10SM CLR 06/00 A3031 RMK AO2 T00600002
KMKN 111015Z AUTO 22012KT 10SM CLR 06/00 A3032 RMK AO2 T00640003
KMKN 110955Z AUTO 22009KT 10SM CLR 06/01 A3032 RMK AO2 T00570005
KMKN 110935Z AUTO 21003KT 10SM CLR 04/00 A3032 RMK AO2 T00410000
KMKN 110915Z AUTO 00000KT 10SM CLR 03/M01 A3033 RMK AO2 T00321007
KMKN 110855Z AUTO 00000KT 10SM CLR 04/00 A3033 RMK AO2 T00411004
KMKN 110835Z AUTO 00000KT 10SM CLR 04/M01 A3033 RMK AO2 T00381010
KMKN 110815Z AUTO 00000KT 10SM CLR 04/M01 A3033 RMK AO2 T00361012
KMKN 110755Z AUTO 22005KT 10SM CLR 06/M01 A3033 RMK AO2 T00561009
KMKN 110735Z AUTO 21008KT 10SM CLR 06/M01 A3034 RMK AO2 T00631010
KMKN 110715Z AUTO 21010KT 10SM CLR 06/M01 A3034 RMK AO2 T00571011
KMKN 110655Z AUTO 22009KT 10SM CLR 06/M01 A3034 RMK AO2 T00611014
KMKN 110635Z AUTO 21006KT 10SM CLR 05/M01 A3035 RMK AO2 T00501012
KMKN 110615Z AUTO 21004KT 10SM CLR 04/M01 A3035 RMK AO2 T00381012
KMKN 110555Z AUTO 19003KT 10SM CLR 05/M01 A3035 RMK AO2 T00511009 10105 20041 401501013
KMKN 110535Z AUTO 00000KT 10SM CLR 05/00 A3035 RMK AO2 T00481002
KMKN 110515Z AUTO 20003KT 10SM CLR 04/00 A3036 RMK AO2 T00421004
KMKN 110455Z AUTO 20005KT 10SM CLR 05/00 A3036 RMK AO2 T00500000
KMKN 110435Z AUTO 21007KT 10SM CLR 05/00 A3036 RMK AO2 T00450000
KMKN 110415Z AUTO 21007KT 10SM CLR 05/00 A3035 RMK AO2 T00500000
KMKN 110355Z AUTO 21007KT 10SM CLR 05/00 A3035 RMK AO2 T00471001
KMKN 110335Z AUTO 21006KT 10SM CLR 05/00 A3035 RMK AO2 T00500000
KMKN 110315Z AUTO 21006KT 10SM CLR 06/00 A3036 RMK AO2 T00570000
KMKN 110255Z AUTO 22005KT 10SM CLR 07/00 A3035 RMK AO2 T00650000
KMKN 110235Z AUTO 22006KT 10SM CLR 07/00 A3035 RMK AO2 T00700000
KMKN 110215Z AUTO 22005KT 10SM CLR 07/00 A3035 RMK AO2 T00700000
KMKN 110155Z AUTO 21005KT 10SM CLR 07/00 A3035 RMK AO2 T00710000
KMKN 110135Z AUTO 21005KT 10SM CLR 07/00 A3035 RMK AO2 T00740000
KMKN 110115Z AUTO 22005KT 10SM CLR 08/00 A3036 RMK AO2 T00780000
KMKN 110055Z AUTO 22005KT 10SM CLR 09/00 A3036 RMK AO2 T00901002
KMKN 110035Z AUTO 22005KT 10SM CLR 10/00 A3035 RMK AO2 T00951002
KMKN 110015Z AUTO 22005KT 10SM CLR 10/00 A3034 RMK AO2 T00991001
KMKN 102355Z AUTO 22004KT 10SM CLR 11/00 A3034 RMK AO2 T01061005 10150 20106
KMKN 102335Z AUTO 23003KT 10SM CLR 12/M01 A3033 RMK AO2 T01161006
KMKN 102315Z AUTO 24004KT 10SM CLR 12/M01 A3033 RMK AO2 T01231007
KMKN 102255Z AUTO 22004KT 10SM CLR 13/M01 A3033 RMK AO2 T01331012
KMKN 102235Z AUTO 28004KT 10SM CLR 14/M02 A3033 RMK AO2 T01371023
KMKN 102215Z AUTO 31003KT 10SM CLR 14/M03 A3033 RMK AO2 T01401029
KMKN 102155Z AUTO 32004KT 10SM CLR 14/M03 A3033 RMK AO2 T01441028
KMKN 102135Z AUTO 27004KT 10SM CLR 15/M04 A3032 RMK AO2 T01451039
KMKN 102115Z AUTO 30004KT 10SM CLR 15/M04 A3032 RMK AO2 T01451044
KMKN 102055Z AUTO 29003KT 10SM CLR 15/M04 A3033 RMK AO2 T01481039
KMKN 102035Z AUTO 22006KT 10SM CLR 15/M04 A3033 RMK AO2 T01481039
KMKN 102015Z AUTO 00000KT 10SM CLR 15/M04 A3033 RMK AO2 T01481042
KMKN 101955Z AUTO 16003KT 10SM CLR 15/M04 A3034 RMK AO2 T01451041
KMKN 101935Z AUTO 26005KT 10SM CLR 15/M04 A3034 RMK AO2 T01451042
KMKN 101915Z AUTO 26005KT 10SM CLR 14/M05 A3035 RMK AO2 T01381049
KMKN 101855Z AUTO 30003KT 10SM CLR 13/M05 A3036 RMK AO2 T01321053
KMKN 101835Z AUTO 25006KT 10SM CLR 13/M04 A3037 RMK AO2 T01311041
KMKN 101815Z AUTO 00000KT 10SM CLR 12/M05 A3038 RMK AO2 T01241046
KMKN 101755Z AUTO 32004KT 10SM CLR 12/M03 A3039 RMK AO2 T01191032 10119 21012
KMKN 101735Z AUTO 30004KT 10SM CLR 11/M02 A3040 RMK AO2 T01101024
KMKN 101715Z AUTO 31005KT 10SM CLR 10/M02 A3041 RMK AO2 T01031025
KMKN 101655Z AUTO 32003KT 10SM CLR 09/M01 A3042 RMK AO2 T00911011
KMKN 101635Z AUTO 33004KT 10SM CLR 09/M01 A3042 RMK AO2 T00851010
KMKN 101615Z AUTO 35004KT 10SM CLR 08/M01 A3042 RMK AO2 T00811011
KMKN 101555Z AUTO 00000KT 10SM CLR 08/M03 A3042 RMK AO2 T00751026
KMKN 101535Z AUTO 00000KT 10SM CLR 06/M03 A3041 RMK AO2 T00631029
KMKN 101515Z AUTO 00000KT 10SM CLR 05/M03 A3040 RMK AO2 T00511033
KMKN 101455Z AUTO 00000KT 10SM CLR 04/M03 A3040 RMK AO2 T00391026
KMKN 101435Z AUTO 00000KT 10SM CLR 04/M06 A3039 RMK AO2 T00361063
KMKN 101415Z AUTO 28003KT 10SM CLR 02/M06 A3039 RMK AO2 T00171058
KMKN 101355Z AUTO 27003KT 10SM CLR 01/M06 A3039 RMK AO2 T00081062
KMKN 101335Z AUTO 26004KT 10SM CLR 00/M05 A3039 RMK AO2 T00001055
KMKN 101315Z AUTO 24004KT 10SM CLR 01/M06 A3038 RMK AO2 T00121061
KMKN 101255Z AUTO 00000KT 10SM CLR 01/M05 A3038 RMK AO2 T00101055
KMKN 101235Z AUTO 00000KT 10SM CLR 01/M05 A3037 RMK AO2 T00071050
KMKN 101215Z AUTO 00000KT 10SM CLR M01/M04 A3037 RMK AO2 T10101037
KMKN 101155Z AUTO 00000KT 10SM CLR M01/M04 A3036 RMK AO2 T10111038 10023 21013
KMKN 101135Z AUTO 00000KT 10SM CLR 00/M04 A3035 RMK AO2 T10031043
KMKN 101115Z AUTO 00000KT 10SM CLR 01/M05 A3035 RMK AO2 T00111050
KMKN 101055Z AUTO 00000KT 10SM CLR 02/M05 A3035 RMK AO2 T00161048
KMKN 101035Z AUTO 28005KT 10SM CLR 02/M05 A3035 RMK AO2 T00231052
KMKN 101015Z AUTO 28005KT 10SM CLR 02/M05 A3036 RMK AO2 T00221053
KMKN 100955Z AUTO 28005KT 10SM CLR 02/M05 A3037 RMK AO2 T00201048
KMKN 100935Z AUTO 28006KT 10SM CLR 02/M05 A3037 RMK AO2 T00221048
KMKN 100915Z AUTO 29006KT 10SM CLR 02/M05 A3037 RMK AO2 T00201046
KMKN 100855Z AUTO 29004KT 10SM CLR 02/M04 A3037 RMK AO2 T00171045
KMKN 100835Z AUTO 29006KT 10SM CLR 02/M04 A3037 RMK AO2 T00151043
KMKN 100815Z AUTO 29005KT 10SM CLR 02/M04 A3037 RMK AO2 T00161044
KMKN 100755Z AUTO 29005KT 10SM CLR 01/M04 A3037 RMK AO2 T00131043
KMKN 100735Z AUTO 30005KT 10SM CLR 01/M04 A3038 RMK AO2 T00131043
KMKN 100715Z AUTO 30006KT 10SM CLR 01/M04 A3038 RMK AO2 T00131038
KMKN 100655Z AUTO 29005KT 10SM CLR 01/M03 A3038 RMK AO2 T00121035
KMKN 100635Z AUTO 29004KT 10SM CLR 01/M03 A3038 RMK AO2 T00111033
KMKN 100615Z AUTO 29006KT 10SM CLR 01/M03 A3039 RMK AO2 T00101028
KMKN 100555Z AUTO 30005KT 10SM CLR 01/M02 A3039 RMK AO2 T00101025 10052 20010 400850003
KMKN 100535Z AUTO 29005KT 10SM CLR 01/M02 A3039 RMK AO2 T00101020
KMKN 100515Z AUTO 30006KT 10SM CLR 01/M02 A3039 RMK AO2 T00121020
KMKN 100455Z AUTO 30006KT 10SM CLR 01/M02 A3040 RMK AO2 T00121020
KMKN 100435Z AUTO 30005KT 10SM CLR 01/M02 A3040 RMK AO2 T00121017
KMKN 100415Z AUTO 31005KT 10SM CLR 02/M01 A3040 RMK AO2 T00151015
KMKN 100355Z AUTO 31005KT 10SM CLR 02/M01 A3040 RMK AO2 T00181013
KMKN 100335Z AUTO 30004KT 10SM CLR 02/M01 A3039 RMK AO2 T00181012
KMKN 100315Z AUTO 30005KT 10SM CLR 02/M01 A3039 RMK AO2 T00191009
KMKN 100255Z AUTO 31005KT 10SM CLR 02/M01 A3039 RMK AO2 T00231008
KMKN 100235Z AUTO 30005KT 10SM CLR 02/M01 A3038 RMK AO2 T00221010
KMKN 100215Z AUTO 31004KT 10SM CLR 03/M01 A3038 RMK AO2 T00261008
KMKN 100155Z AUTO 31004KT 10SM CLR 03/M01 A3037 RMK AO2 T00301006
KMKN 100135Z AUTO 33006KT 10SM CLR 04/00 A3037 RMK AO2 T00351005
KMKN 100115Z AUTO 33007KT 10SM CLR 04/00 A3036 RMK AO2 T00361001